Time;durP1;ratioP1;P1;durP2;ratioP2;P2;SDS_P1;SDS_P2;PMS_P1;PMS_P2;Temp;Humidity;BMP_temperature;BMP_pressure;BME280_temperature;BME280_humidity;BME280_pressure;Samples;Min_cycle;Max_cycle;Signal;HPM_P1;HPM_P2
2021/06/22 00:00:58;;;;;;;;;;;22.60;77.60;;;;;;5025710;28;87199;-53
2021/06/22 00:03:24;;;;;;;;;;;22.50;77.60;;;;;;5022505;28;90708;-52
2021/06/22 00:05:49;;;;;;;;;;;22.50;77.60;;;;;;5023172;28;88855;-50
2021/06/22 00:08:15;;;;;;;;;;;22.50;77.60;;;;;;5023906;28;87305;-51
2021/06/22 00:10:40;;;;;;;;;;;22.50;77.60;;;;;;5022197;28;88441;-50
2021/06/22 00:13:06;;;;;;;;;;;22.50;77.60;;;;;;5019154;28;88683;-52
2021/06/22 00:15:32;;;;;;;;;;;22.50;77.60;;;;;;5019903;28;88451;-51
2021/06/22 00:17:58;;;;;;;;;;;22.50;77.60;;;;;;5019138;28;89098;-51
2021/06/22 00:20:24;;;;;;;;;;;22.40;77.60;;;;;;5019805;28;86402;-50
2021/06/22 00:22:51;;;;;;;;;;;22.40;77.40;;;;;;5022570;28;88310;-51
2021/06/22 00:25:17;;;;;;;;;;;22.50;77.50;;;;;;5019560;28;87271;-51
2021/06/22 00:27:43;;;;;;;;;;;22.40;77.50;;;;;;5019521;28;88204;-50
2021/06/22 00:30:09;;;;;;;;;;;22.40;77.50;;;;;;5021025;28;88110;-52
2021/06/22 00:32:34;;;;;;;;;;;22.40;77.50;;;;;;5021080;28;87129;-50
2021/06/22 00:35:00;;;;;;;;;;;22.40;77.50;;;;;;5021395;28;87427;-53
2021/06/22 00:37:26;;;;;;;;;;;22.40;77.50;;;;;;5022001;28;88424;-51
2021/06/22 00:39:51;;;;;;;;;;;22.40;77.50;;;;;;5022247;28;87172;-51
2021/06/22 00:42:17;;;;;;;;;;;22.40;77.60;;;;;;5022855;28;87392;-51
2021/06/22 00:44:46;;;;;;;;;;;22.40;77.60;;;;;;5023958;28;87377;-52
2021/06/22 00:47:11;;;;;;;;;;;22.40;77.50;;;;;;5021314;28;87818;-51
2021/06/22 00:49:37;;;;;;;;;;;22.40;77.50;;;;;;5021891;28;87681;-53
2021/06/22 00:52:02;;;;;;;;;;;22.30;77.40;;;;;;5022376;28;88066;-50
2021/06/22 00:54:28;;;;;;;;;;;22.30;77.50;;;;;;5022027;28;88883;-50
2021/06/22 00:56:54;;;;;;;;;;;22.30;77.40;;;;;;5022168;28;87694;-51
2021/06/22 00:59:21;;;;;;;;;;;22.30;77.50;;;;;;5021448;28;87116;-53
2021/06/22 01:01:46;;;;;;;;;;;22.30;77.60;;;;;;5021646;28;88134;-50
2021/06/22 01:04:12;;;;;;;;;;;22.30;77.50;;;;;;5021381;28;89690;-51
2021/06/22 01:06:37;;;;;;;;;;;22.30;77.60;;;;;;5025461;28;88359;-51
2021/06/22 01:09:06;;;;;;;;;;;22.30;77.50;;;;;;5018960;28;88680;-51
2021/06/22 01:11:31;;;;;;;;;;;22.30;77.50;;;;;;5021067;28;87231;-50
2021/06/22 01:13:57;;;;;;;;;;;22.20;77.50;;;;;;5020171;28;88064;-53
2021/06/22 01:16:25;;;;;;;;;;;22.20;77.50;;;;;;5018771;28;88733;-51
2021/06/22 01:18:57;;;;;;;;;;;22.20;77.40;;;;;;5018111;28;87226;-50
2021/06/22 01:21:22;;;;;;;;;;;22.20;77.40;;;;;;5019738;28;88998;-50
2021/06/22 01:23:48;;;;;;;;;;;22.20;77.50;;;;;;5017191;28;89394;-49
2021/06/22 01:26:13;;;;;;;;;;;22.20;77.40;;;;;;5022239;28;87579;-50
2021/06/22 01:28:41;;;;;;;;;;;22.20;77.70;;;;;;5017672;28;88001;-52
2021/06/22 01:31:06;;;;;;;;;;;22.20;77.60;;;;;;5019894;28;87988;-50
2021/06/22 01:33:32;;;;;;;;;;;22.10;77.50;;;;;;5017875;28;89419;-52
2021/06/22 01:35:57;;;;;;;;;;;22.20;77.50;;;;;;5017578;28;89504;-51
2021/06/22 01:38:23;;;;;;;;;;;22.10;77.50;;;;;;5017328;28;87170;-51
2021/06/22 01:40:50;;;;;;;;;;;22.10;77.50;;;;;;5017136;28;88706;-50
2021/06/22 01:43:15;;;;;;;;;;;22.10;77.50;;;;;;5021703;28;89885;-54
2021/06/22 01:45:41;;;;;;;;;;;22.10;77.50;;;;;;5022379;28;87157;-54
2021/06/22 01:48:07;;;;;;;;;;;22.10;77.50;;;;;;5024386;28;87896;-51
2021/06/22 01:50:32;;;;;;;;;;;22.10;77.50;;;;;;5021355;28;87142;-54
2021/06/22 01:52:58;;;;;;;;;;;22.10;77.50;;;;;;5021063;28;88014;-51
2021/06/22 01:55:43;;;;;;;;;;;22.00;77.60;;;;;;5017019;28;88090;-52
2021/06/22 01:58:10;;;;;;;;;;;22.00;77.50;;;;;;5018124;28;86453;-51
2021/06/22 02:00:36;;;;;;;;;;;22.00;77.50;;;;;;5021755;28;87171;-54
2021/06/22 02:03:02;;;;;;;;;;;22.00;77.50;;;;;;5020683;28;88739;-52
2021/06/22 02:05:27;;;;;;;;;;;22.00;77.40;;;;;;5020408;28;88993;-51
2021/06/22 02:07:53;;;;;;;;;;;22.00;77.50;;;;;;5017975;28;88812;-51
2021/06/22 02:10:18;;;;;;;;;;;22.00;77.50;;;;;;5019951;28;88068;-52
2021/06/22 02:12:44;;;;;;;;;;;22.00;77.40;;;;;;5016325;28;87725;-51
2021/06/22 02:15:10;;;;;;;;;;;21.90;77.40;;;;;;5019580;28;88765;-52
2021/06/22 02:17:35;;;;;;;;;;;21.90;78.10;;;;;;5019898;28;88820;-52
2021/06/22 02:20:03;;;;;;;;;;;21.90;77.40;;;;;;5017796;28;87124;-50
2021/06/22 02:22:28;;;;;;;;;;;21.90;77.50;;;;;;5021000;28;87692;-50
2021/06/22 02:24:54;;;;;;;;;;;21.90;77.40;;;;;;5017432;28;88090;-51
2021/06/22 02:27:20;;;;;;;;;;;21.90;77.40;;;;;;5017235;28;87522;-50
2021/06/22 02:29:46;;;;;;;;;;;21.90;77.60;;;;;;5019634;28;89104;-51
2021/06/22 02:32:11;;;;;;;;;;;21.80;77.50;;;;;;5020465;28;88014;-51
2021/06/22 02:34:37;;;;;;;;;;;21.90;77.40;;;;;;5017136;28;89255;-50
2021/06/22 02:37:02;;;;;;;;;;;21.80;77.50;;;;;;5019098;28;87167;-51
2021/06/22 02:39:28;;;;;;;;;;;21.80;77.50;;;;;;5020049;28;88087;-52
2021/06/22 02:41:53;;;;;;;;;;;21.80;77.50;;;;;;5020278;28;89065;-51
2021/06/22 02:44:19;;;;;;;;;;;21.80;77.50;;;;;;5020793;28;87075;-54
2021/06/22 02:46:45;;;;;;;;;;;21.80;77.40;;;;;;5021039;28;88728;-53
2021/06/22 02:49:10;;;;;;;;;;;21.80;77.50;;;;;;5019820;28;87593;-50
2021/06/22 02:51:36;;;;;;;;;;;21.80;77.50;;;;;;5017184;28;87214;-51
2021/06/22 02:54:01;;;;;;;;;;;21.80;77.50;;;;;;5019290;28;89234;-50
2021/06/22 02:56:27;;;;;;;;;;;21.70;77.40;;;;;;5018734;28;87264;-51
2021/06/22 02:58:52;;;;;;;;;;;21.70;77.50;;;;;;5018403;28;88831;-52
2021/06/22 03:01:18;;;;;;;;;;;21.70;77.40;;;;;;5018543;28;88948;-52
2021/06/22 03:03:43;;;;;;;;;;;21.70;77.40;;;;;;5019627;28;87139;-53
2021/06/22 03:06:09;;;;;;;;;;;21.70;77.50;;;;;;5021011;28;87465;-53
2021/06/22 03:08:34;;;;;;;;;;;21.70;77.50;;;;;;5018924;28;88578;-53
2021/06/22 03:11:00;;;;;;;;;;;21.70;77.40;;;;;;5021740;28;86540;-54
2021/06/22 03:13:25;;;;;;;;;;;21.70;77.40;;;;;;5020479;28;87198;-51
2021/06/22 03:15:51;;;;;;;;;;;21.60;77.50;;;;;;5022481;28;87726;-52
2021/06/22 03:18:16;;;;;;;;;;;21.60;77.50;;;;;;5018849;28;88093;-51
2021/06/22 03:20:42;;;;;;;;;;;21.60;77.40;;;;;;5020222;28;88131;-53
2021/06/22 03:23:07;;;;;;;;;;;21.60;77.40;;;;;;5018873;28;88690;-51
2021/06/22 03:25:33;;;;;;;;;;;21.60;77.50;;;;;;5016297;28;87477;-52
2021/06/22 03:27:58;;;;;;;;;;;21.60;77.50;;;;;;5016091;28;88241;-51
2021/06/22 03:30:24;;;;;;;;;;;21.60;78.10;;;;;;5017287;28;87172;-51
2021/06/22 03:32:50;;;;;;;;;;;21.50;77.50;;;;;;5018498;28;87347;-53
2021/06/22 03:35:15;;;;;;;;;;;21.50;77.40;;;;;;5021136;28;88543;-53
2021/06/22 03:37:41;;;;;;;;;;;21.50;77.50;;;;;;5019366;28;88121;-52
2021/06/22 03:40:07;;;;;;;;;;;21.60;77.50;;;;;;5018584;28;87727;-50
2021/06/22 03:42:36;;;;;;;;;;;21.50;77.40;;;;;;5016963;28;88085;-49
2021/06/22 03:45:02;;;;;;;;;;;21.50;77.50;;;;;;5019089;28;88635;-50
2021/06/22 03:47:28;;;;;;;;;;;21.50;77.50;;;;;;5017166;28;88147;-52
2021/06/22 03:49:53;;;;;;;;;;;21.50;77.50;;;;;;5018554;28;87171;-50
2021/06/22 03:52:19;;;;;;;;;;;21.50;77.50;;;;;;5019516;28;87761;-50
2021/06/22 03:54:44;;;;;;;;;;;21.50;77.50;;;;;;5018051;28;89361;-51
2021/06/22 03:57:10;;;;;;;;;;;21.50;77.50;;;;;;5020846;28;87136;-50
2021/06/22 03:59:35;;;;;;;;;;;21.40;77.40;;;;;;5017437;28;87469;-53
2021/06/22 04:02:01;;;;;;;;;;;21.50;77.50;;;;;;5018196;28;87146;-50
2021/06/22 04:04:26;;;;;;;;;;;21.40;77.40;;;;;;5019282;28;87127;-55
2021/06/22 04:06:52;;;;;;;;;;;21.40;77.50;;;;;;5019066;28;89144;-51
2021/06/22 04:09:24;;;;;;;;;;;21.40;77.40;;;;;;5016487;28;88574;-52
2021/06/22 04:11:50;;;;;;;;;;;21.40;77.40;;;;;;5019154;28;89744;-51
2021/06/22 04:14:15;;;;;;;;;;;21.40;77.40;;;;;;5018214;28;87661;-51
2021/06/22 04:16:41;;;;;;;;;;;21.40;77.40;;;;;;5019069;28;87286;-52
2021/06/22 04:19:06;;;;;;;;;;;21.40;77.50;;;;;;5021760;28;87182;-51
2021/06/22 04:21:32;;;;;;;;;;;21.40;77.40;;;;;;5019424;28;87246;-52
2021/06/22 04:23:57;;;;;;;;;;;21.40;77.40;;;;;;5019466;28;87058;-50
2021/06/22 04:26:23;;;;;;;;;;;21.30;77.40;;;;;;5018799;28;88166;-52
2021/06/22 04:28:48;;;;;;;;;;;21.30;77.40;;;;;;5018242;28;87159;-51
2021/06/22 04:31:14;;;;;;;;;;;21.30;77.40;;;;;;5017047;28;88126;-51
2021/06/22 04:33:40;;;;;;;;;;;21.30;77.40;;;;;;5017846;28;89952;-51
2021/06/22 04:36:05;;;;;;;;;;;21.30;77.40;;;;;;5022519;28;87163;-51
2021/06/22 04:38:31;;;;;;;;;;;21.30;77.50;;;;;;5022411;28;87446;-52
2021/06/22 04:40:56;;;;;;;;;;;21.30;77.40;;;;;;5024549;28;89145;-50
2021/06/22 04:43:22;;;;;;;;;;;21.30;77.40;;;;;;5022306;28;87587;-53
2021/06/22 04:45:48;;;;;;;;;;;21.30;77.40;;;;;;5022528;28;89224;-54
2021/06/22 04:48:13;;;;;;;;;;;21.30;77.40;;;;;;5021164;28;87941;-50
2021/06/22 04:50:39;;;;;;;;;;;21.30;77.40;;;;;;5018309;28;88151;-55
2021/06/22 04:53:04;;;;;;;;;;;21.30;77.40;;;;;;5019114;28;89017;-51
2021/06/22 04:55:30;;;;;;;;;;;21.30;77.50;;;;;;5020058;28;88117;-53
2021/06/22 04:57:57;;;;;;;;;;;21.30;77.50;;;;;;5021769;28;88573;-50
2021/06/22 05:00:22;;;;;;;;;;;21.30;77.40;;;;;;5020763;28;89237;-52
2021/06/22 05:02:48;;;;;;;;;;;21.30;77.50;;;;;;5023542;28;87241;-50
2021/06/22 05:05:14;;;;;;;;;;;21.30;77.60;;;;;;5019718;28;88289;-51
2021/06/22 05:07:40;;;;;;;;;;;21.30;77.60;;;;;;5018149;28;87192;-50
2021/06/22 05:10:06;;;;;;;;;;;21.30;77.60;;;;;;5019339;28;88255;-51
2021/06/22 05:12:31;;;;;;;;;;;21.30;77.60;;;;;;5018925;28;87460;-50
2021/06/22 05:14:57;;;;;;;;;;;21.30;77.60;;;;;;5018742;28;87252;-50
2021/06/22 05:17:22;;;;;;;;;;;21.30;77.60;;;;;;5020088;28;87802;-51
2021/06/22 05:19:48;;;;;;;;;;;21.30;77.60;;;;;;5019361;28;90165;-51
2021/06/22 05:22:14;;;;;;;;;;;21.30;77.70;;;;;;5019633;28;87184;-51
2021/06/22 05:24:40;;;;;;;;;;;21.30;77.70;;;;;;5022762;28;87319;-50
2021/06/22 05:27:06;;;;;;;;;;;21.30;77.80;;;;;;5020634;28;87163;-51
2021/06/22 05:29:31;;;;;;;;;;;21.30;77.80;;;;;;5021176;28;87838;-51
2021/06/22 05:31:57;;;;;;;;;;;21.30;77.70;;;;;;5022277;28;87686;-50
2021/06/22 05:34:22;;;;;;;;;;;21.30;77.80;;;;;;5019581;28;87172;-51
2021/06/22 05:36:48;;;;;;;;;;;21.30;77.80;;;;;;5018210;28;87478;-50
2021/06/22 05:39:14;;;;;;;;;;;21.30;77.90;;;;;;5017728;28;87583;-50
2021/06/22 05:41:39;;;;;;;;;;;21.30;77.80;;;;;;5019104;28;87152;-51
2021/06/22 05:44:05;;;;;;;;;;;21.30;77.90;;;;;;5022210;28;88100;-50
2021/06/22 05:46:31;;;;;;;;;;;21.30;78.00;;;;;;5020269;28;87179;-51
2021/06/22 05:48:56;;;;;;;;;;;21.30;78.00;;;;;;5022145;28;87566;-52
2021/06/22 05:51:22;;;;;;;;;;;21.30;78.00;;;;;;5018897;28;88689;-51
2021/06/22 05:53:47;;;;;;;;;;;21.40;78.10;;;;;;5017802;28;87155;-50
2021/06/22 05:56:13;;;;;;;;;;;21.40;78.10;;;;;;5018460;28;87144;-51
2021/06/22 05:58:38;;;;;;;;;;;21.40;78.10;;;;;;5018603;28;88249;-52
2021/06/22 06:01:04;;;;;;;;;;;21.40;78.20;;;;;;5019125;28;86490;-49
2021/06/22 06:03:29;;;;;;;;;;;21.40;78.20;;;;;;5018861;28;87132;-50
2021/06/22 06:05:55;;;;;;;;;;;21.40;78.20;;;;;;5022488;28;88143;-49
2021/06/22 06:08:20;;;;;;;;;;;21.40;78.20;;;;;;5020705;28;88095;-51
2021/06/22 06:10:46;;;;;;;;;;;21.40;78.20;;;;;;5020609;28;88634;-49
2021/06/22 06:13:12;;;;;;;;;;;21.40;78.20;;;;;;5017987;28;88889;-50
2021/06/22 06:15:37;;;;;;;;;;;21.40;78.20;;;;;;5017724;28;88656;-52
2021/06/22 06:18:03;;;;;;;;;;;21.40;78.30;;;;;;5016870;28;87279;-51
2021/06/22 06:20:29;;;;;;;;;;;21.40;78.30;;;;;;5017832;28;87284;-51
2021/06/22 06:22:55;;;;;;;;;;;21.40;78.30;;;;;;5018194;28;88981;-50
2021/06/22 06:25:21;;;;;;;;;;;21.40;78.30;;;;;;5017397;28;88582;-51
2021/06/22 06:30:16;;;;;;;;;;;21.40;78.40;;;;;;5016925;28;88129;-50
2021/06/22 06:32:43;;;;;;;;;;;21.40;78.40;;;;;;5018861;28;88124;-51
2021/06/22 06:35:09;;;;;;;;;;;21.40;78.40;;;;;;5016908;28;88374;-53
2021/06/22 06:37:34;;;;;;;;;;;21.40;78.40;;;;;;5016827;28;88246;-50
2021/06/22 06:40:00;;;;;;;;;;;21.50;78.50;;;;;;5017691;28;87274;-51
2021/06/22 06:42:25;;;;;;;;;;;21.50;78.50;;;;;;5018236;28;89053;-50
2021/06/22 06:44:51;;;;;;;;;;;21.50;78.60;;;;;;5019053;28;88115;-52
2021/06/22 06:47:18;;;;;;;;;;;21.50;78.60;;;;;;5020002;28;87236;-51
2021/06/22 06:49:43;;;;;;;;;;;21.50;78.60;;;;;;5022610;28;88882;-49
2021/06/22 06:52:09;;;;;;;;;;;21.50;78.50;;;;;;5021016;28;87148;-51
2021/06/22 06:54:34;;;;;;;;;;;21.50;78.60;;;;;;5018772;28;87958;-50
2021/06/22 06:57:00;;;;;;;;;;;21.50;78.60;;;;;;5015341;28;89655;-51
2021/06/22 06:59:26;;;;;;;;;;;21.50;78.60;;;;;;5017778;28;87148;-52
2021/06/22 07:01:51;;;;;;;;;;;21.50;78.60;;;;;;5017679;28;88504;-51
2021/06/22 07:04:17;;;;;;;;;;;21.50;78.60;;;;;;5018435;28;89160;-50
2021/06/22 07:06:42;;;;;;;;;;;21.50;78.60;;;;;;5019922;28;87161;-52
2021/06/22 07:09:08;;;;;;;;;;;21.50;78.60;;;;;;5021217;28;87552;-51
2021/06/22 07:11:34;;;;;;;;;;;21.60;78.50;;;;;;5021124;28;88610;-50
2021/06/22 07:13:59;;;;;;;;;;;21.60;78.50;;;;;;5016645;28;87481;-51
2021/06/22 07:16:25;;;;;;;;;;;21.60;78.60;;;;;;5017018;28;89462;-51
2021/06/22 07:18:51;;;;;;;;;;;21.60;78.50;;;;;;5018252;28;87180;-50
2021/06/22 07:21:18;;;;;;;;;;;21.60;78.50;;;;;;5018554;28;88080;-50
2021/06/22 07:23:43;;;;;;;;;;;21.60;78.50;;;;;;5017076;28;89516;-53
2021/06/22 07:26:09;;;;;;;;;;;21.60;78.50;;;;;;5018926;28;87253;-51
2021/06/22 07:28:34;;;;;;;;;;;21.70;78.60;;;;;;5020115;28;87276;-50
2021/06/22 07:31:02;;;;;;;;;;;21.60;78.50;;;;;;5019759;28;88982;-52
2021/06/22 07:33:27;;;;;;;;;;;21.70;78.70;;;;;;5020482;28;87132;-52
2021/06/22 07:35:53;;;;;;;;;;;21.70;78.60;;;;;;5016826;28;87736;-51
2021/06/22 07:38:18;;;;;;;;;;;21.70;78.60;;;;;;5016670;28;86419;-50
2021/06/22 07:40:44;;;;;;;;;;;21.70;78.60;;;;;;5016657;28;87258;-51
2021/06/22 07:43:09;;;;;;;;;;;21.70;78.70;;;;;;5017463;28;88071;-50
2021/06/22 07:45:35;;;;;;;;;;;21.70;79.30;;;;;;5018264;28;88152;-51
2021/06/22 07:48:01;;;;;;;;;;;21.80;78.80;;;;;;5020265;28;88487;-52
2021/06/22 07:50:26;;;;;;;;;;;21.80;78.80;;;;;;5018029;28;89534;-49
2021/06/22 07:52:52;;;;;;;;;;;21.80;78.80;;;;;;5019028;28;87952;-49
2021/06/22 07:55:18;;;;;;;;;;;21.80;78.80;;;;;;5016062;28;89184;-50
2021/06/22 07:57:44;;;;;;;;;;;21.80;78.80;;;;;;5016429;28;87178;-51
2021/06/22 08:00:17;;;;;;;;;;;21.80;79.00;;;;;;5015671;28;88249;-50
2021/06/22 08:02:42;;;;;;;;;;;21.80;79.10;;;;;;5020687;28;87074;-54
2021/06/22 08:05:08;;;;;;;;;;;21.80;79.10;;;;;;5017713;28;87968;-51
2021/06/22 08:07:33;;;;;;;;;;;21.90;79.40;;;;;;5015739;28;87141;-51
2021/06/22 08:09:59;;;;;;;;;;;21.90;79.40;;;;;;5016320;28;90473;-52
2021/06/22 08:12:24;;;;;;;;;;;21.90;79.40;;;;;;5020317;28;87154;-52
2021/06/22 08:14:50;;;;;;;;;;;21.90;79.40;;;;;;5024140;28;87391;-51
2021/06/22 08:17:15;;;;;;;;;;;21.90;79.50;;;;;;5022841;28;87131;-51
2021/06/22 08:19:41;;;;;;;;;;;21.90;79.40;;;;;;5022855;28;87229;-50
2021/06/22 08:22:06;;;;;;;;;;;22.00;79.50;;;;;;5022249;28;87427;-53
2021/06/22 08:24:32;;;;;;;;;;;22.00;79.50;;;;;;5023554;28;87326;-51
2021/06/22 08:26:57;;;;;;;;;;;22.00;79.60;;;;;;5020774;28;87147;-53
2021/06/22 08:29:23;;;;;;;;;;;22.00;79.60;;;;;;5019168;28;87586;-52
2021/06/22 08:31:48;;;;;;;;;;;22.00;79.60;;;;;;5020765;28;87134;-51
2021/06/22 08:34:14;;;;;;;;;;;22.00;79.60;;;;;;5021336;28;88079;-51
2021/06/22 08:36:39;;;;;;;;;;;22.00;79.70;;;;;;5025829;28;87614;-54
2021/06/22 08:39:05;;;;;;;;;;;22.10;79.70;;;;;;5023376;28;88914;-52
2021/06/22 08:41:33;;;;;;;;;;;22.00;79.50;;;;;;5021574;28;88142;-51
2021/06/22 08:44:01;;;;;;;;;;;22.10;79.70;;;;;;5021770;28;87192;-50
2021/06/22 08:46:28;;;;;;;;;;;22.10;79.70;;;;;;5019330;28;87422;-50
2021/06/22 08:48:55;;;;;;;;;;;22.10;79.70;;;;;;5018446;28;89771;-51
2021/06/22 08:51:22;;;;;;;;;;;22.10;79.80;;;;;;5018939;28;86462;-51
2021/06/22 08:53:48;;;;;;;;;;;22.10;79.70;;;;;;5022330;28;88323;-51
2021/06/22 08:56:13;;;;;;;;;;;22.20;79.90;;;;;;5020431;28;90123;-50
2021/06/22 08:58:39;;;;;;;;;;;22.20;79.80;;;;;;5020541;28;88524;-52
2021/06/22 09:01:04;;;;;;;;;;;22.20;79.80;;;;;;5019181;28;87890;-52
2021/06/22 09:03:30;;;;;;;;;;;22.20;79.60;;;;;;5020877;28;87152;-51
2021/06/22 09:05:59;;;;;;;;;;;22.20;79.60;;;;;;5020806;28;87498;-50
2021/06/22 09:08:32;;;;;;;;;;;22.30;79.60;;;;;;5021267;28;90223;-53
2021/06/22 09:11:04;;;;;;;;;;;22.30;79.70;;;;;;5019999;28;87188;-50
2021/06/22 09:13:30;;;;;;;;;;;22.30;79.80;;;;;;5020136;28;87669;-51
2021/06/22 09:15:56;;;;;;;;;;;22.30;79.60;;;;;;5018447;28;89171;-50
2021/06/22 09:18:23;;;;;;;;;;;22.30;79.50;;;;;;5020895;28;87146;-50
2021/06/22 09:20:49;;;;;;;;;;;22.40;79.70;;;;;;5021959;28;88680;-50
2021/06/22 09:23:17;;;;;;;;;;;22.40;79.70;;;;;;5020256;28;88102;-50
2021/06/22 09:25:43;;;;;;;;;;;22.40;79.60;;;;;;5018356;28;89679;-51
2021/06/22 09:28:09;;;;;;;;;;;22.40;79.50;;;;;;5017485;28;89660;-50
2021/06/22 09:30:37;;;;;;;;;;;22.40;79.30;;;;;;5018837;28;87132;-51
2021/06/22 09:33:21;;;;;;;;;;;22.50;79.20;;;;;;5021877;28;88953;-51
2021/06/22 09:35:48;;;;;;;;;;;22.50;79.80;;;;;;5018756;28;88253;-52
2021/06/22 09:38:14;;;;;;;;;;;22.50;79.10;;;;;;5018208;28;87678;-51
2021/06/22 09:40:40;;;;;;;;;;;22.50;79.30;;;;;;5021914;28;87826;-53
2021/06/22 09:43:06;;;;;;;;;;;22.50;79.20;;;;;;5019886;28;87207;-50
2021/06/22 09:45:32;;;;;;;;;;;22.60;79.30;;;;;;5020404;28;88546;-51
2021/06/22 09:48:02;;;;;;;;;;;22.60;79.40;;;;;;5018630;28;89980;-50
2021/06/22 09:50:45;;;;;;;;;;;22.60;79.20;;;;;;5020820;28;87291;-51
2021/06/22 09:53:30;;;;;;;;;;;22.60;79.20;;;;;;5019593;28;88602;-49
2021/06/22 09:55:56;;;;;;;;;;;22.60;79.30;;;;;;5021555;28;87684;-51
2021/06/22 09:58:41;;;;;;;;;;;22.70;79.20;;;;;;5021384;28;87140;-50
2021/06/22 10:01:27;;;;;;;;;;;22.70;79.20;;;;;;5019083;28;88960;-51
2021/06/22 10:03:53;;;;;;;;;;;22.70;79.10;;;;;;5019835;28;88279;-49
2021/06/22 10:06:18;;;;;;;;;;;22.80;79.30;;;;;;5018041;28;87902;-51
2021/06/22 10:08:50;;;;;;;;;;;22.80;79.40;;;;;;5017621;28;90099;-51
2021/06/22 10:11:30;;;;;;;;;;;22.80;79.00;;;;;;5018905;28;88817;-50
2021/06/22 10:13:56;;;;;;;;;;;22.80;78.90;;;;;;5017396;28;88092;-50
2021/06/22 10:16:23;;;;;;;;;;;22.90;79.20;;;;;;5018310;28;89340;-50
2021/06/22 10:18:48;;;;;;;;;;;22.90;79.10;;;;;;5018911;28;87164;-52
2021/06/22 10:21:15;;;;;;;;;;;22.90;78.90;;;;;;5020146;28;87395;-52
2021/06/22 10:23:40;;;;;;;;;;;22.90;79.00;;;;;;5019650;28;88096;-51
2021/06/22 10:26:06;;;;;;;;;;;22.90;79.00;;;;;;5022373;28;87251;-51
2021/06/22 10:28:33;;;;;;;;;;;23.00;78.80;;;;;;5020376;28;88121;-53
2021/06/22 10:30:59;;;;;;;;;;;23.00;79.00;;;;;;5020429;28;86430;-51
2021/06/22 10:33:24;;;;;;;;;;;23.00;78.90;;;;;;5019894;28;88223;-53
2021/06/22 10:35:50;;;;;;;;;;;23.00;79.00;;;;;;5020640;28;88649;-51
2021/06/22 10:38:16;;;;;;;;;;;23.10;78.80;;;;;;5018023;28;89763;-51
2021/06/22 10:40:42;;;;;;;;;;;23.10;79.00;;;;;;5017022;28;89962;-52
2021/06/22 10:43:07;;;;;;;;;;;23.10;78.80;;;;;;5016974;28;89793;-51
2021/06/22 10:45:51;;;;;;;;;;;23.10;79.00;;;;;;5016437;28;87176;-49
2021/06/22 10:48:18;;;;;;;;;;;23.10;79.00;;;;;;5020273;28;88699;-51
2021/06/22 10:50:43;;;;;;;;;;;23.10;78.80;;;;;;5016653;28;88890;-49
2021/06/22 10:53:09;;;;;;;;;;;23.20;78.80;;;;;;5020617;28;88658;-51
2021/06/22 10:55:37;;;;;;;;;;;23.20;78.90;;;;;;5020857;28;88450;-50
2021/06/22 10:58:05;;;;;;;;;;;23.20;79.10;;;;;;5019927;28;87215;-49
2021/06/22 11:00:37;;;;;;;;;;;23.20;78.80;;;;;;5021654;28;87180;-54
2021/06/22 11:03:07;;;;;;;;;;;23.20;78.80;;;;;;5019749;28;89072;-50
2021/06/22 11:05:34;;;;;;;;;;;23.30;78.90;;;;;;5016363;28;87174;-53
2021/06/22 11:08:09;;;;;;;;;;;23.30;78.90;;;;;;5019816;28;88704;-54
2021/06/22 11:10:38;;;;;;;;;;;23.30;78.90;;;;;;5018834;28;89826;-52
2021/06/22 11:13:04;;;;;;;;;;;23.30;78.80;;;;;;5017979;28;89042;-51
2021/06/22 11:15:46;;;;;;;;;;;23.30;78.80;;;;;;5017825;28;90150;-51
2021/06/22 11:18:16;;;;;;;;;;;23.40;78.90;;;;;;5017406;28;87236;-50
2021/06/22 11:21:05;;;;;;;;;;;23.40;79.10;;;;;;5019794;28;89073;-52
2021/06/22 11:23:50;;;;;;;;;;;23.40;78.90;;;;;;5016680;28;89253;-50
2021/06/22 11:26:16;;;;;;;;;;;23.40;78.90;;;;;;5016866;28;87212;-50
2021/06/22 11:28:53;;;;;;;;;;;23.40;78.80;;;;;;5017365;28;88119;-52
2021/06/22 11:31:37;;;;;;;;;;;23.50;78.80;;;;;;5017912;28;87599;-52
2021/06/22 11:34:08;;;;;;;;;;;23.50;78.70;;;;;;5022804;28;88822;-51
2021/06/22 11:36:34;;;;;;;;;;;23.60;78.80;;;;;;5016101;28;89287;-51
2021/06/22 11:39:07;;;;;;;;;;;23.60;78.90;;;;;;5017343;28;88109;-51
2021/06/22 11:41:34;;;;;;;;;;;23.60;78.80;;;;;;5018694;28;87552;-51
2021/06/22 11:44:08;;;;;;;;;;;23.70;78.80;;;;;;5018498;28;88131;-52
2021/06/22 11:46:35;;;;;;;;;;;23.70;78.80;;;;;;5023737;28;87277;-50
2021/06/22 11:49:01;;;;;;;;;;;23.60;78.80;;;;;;5022604;28;87922;-52
2021/06/22 11:51:45;;;;;;;;;;;23.70;78.70;;;;;;5021542;28;88697;-53
2021/06/22 11:54:11;;;;;;;;;;;23.70;78.60;;;;;;5022596;28;88076;-51
2021/06/22 11:56:37;;;;;;;;;;;23.80;78.70;;;;;;5020977;28;87123;-52
2021/06/22 11:59:02;;;;;;;;;;;23.80;78.60;;;;;;5022176;28;87170;-50
2021/06/22 12:01:28;;;;;;;;;;;23.80;78.50;;;;;;5022852;28;88521;-51
2021/06/22 12:03:54;;;;;;;;;;;23.90;78.60;;;;;;5023347;28;88291;-52
2021/06/22 12:06:23;;;;;;;;;;;23.90;78.50;;;;;;5020983;28;88858;-50
2021/06/22 12:08:48;;;;;;;;;;;23.90;78.40;;;;;;5021375;28;87781;-50
2021/06/22 12:11:30;;;;;;;;;;;24.00;78.30;;;;;;5021217;28;87981;-51
2021/06/22 12:13:56;;;;;;;;;;;24.00;77.80;;;;;;5021977;28;87156;-51
2021/06/22 12:16:29;;;;;;;;;;;24.00;77.80;;;;;;5025178;28;88303;-51
2021/06/22 12:18:58;;;;;;;;;;;24.00;77.90;;;;;;5018918;28;88119;-52
2021/06/22 12:21:25;;;;;;;;;;;24.00;77.70;;;;;;5022245;28;89926;-50
2021/06/22 12:23:51;;;;;;;;;;;24.00;77.60;;;;;;5019705;28;89849;-52
2021/06/22 12:26:17;;;;;;;;;;;24.10;77.40;;;;;;5019129;28;87150;-52
2021/06/22 12:28:43;;;;;;;;;;;24.10;77.50;;;;;;5020202;28;89360;-49
2021/06/22 12:31:09;;;;;;;;;;;24.10;77.50;;;;;;5018433;28;90188;-51
2021/06/22 12:33:39;;;;;;;;;;;24.10;77.60;;;;;;5018749;28;87231;-50
2021/06/22 12:36:06;;;;;;;;;;;24.10;77.30;;;;;;5020134;28;88721;-50
2021/06/22 12:38:31;;;;;;;;;;;24.20;77.80;;;;;;5022462;28;88955;-54
2021/06/22 12:40:58;;;;;;;;;;;24.20;77.50;;;;;;5022895;28;88608;-53
2021/06/22 12:43:40;;;;;;;;;;;24.20;77.40;;;;;;5020905;28;89597;-52
2021/06/22 12:46:06;;;;;;;;;;;24.20;76.90;;;;;;5019321;28;87137;-49
2021/06/22 12:48:32;;;;;;;;;;;24.30;76.90;;;;;;5018881;28;88871;-52
2021/06/22 12:50:58;;;;;;;;;;;24.30;76.80;;;;;;5018014;28;87585;-50
2021/06/22 12:53:24;;;;;;;;;;;24.30;76.60;;;;;;5019376;28;87678;-52
2021/06/22 12:55:51;;;;;;;;;;;24.30;77.00;;;;;;5022903;28;87365;-54
2021/06/22 12:58:17;;;;;;;;;;;24.30;76.60;;;;;;5019541;28;89898;-50
2021/06/22 13:00:44;;;;;;;;;;;24.40;76.80;;;;;;5022618;28;86446;-50
2021/06/22 13:03:11;;;;;;;;;;;24.40;76.90;;;;;;5018223;28;89664;-51
2021/06/22 13:05:38;;;;;;;;;;;24.40;76.90;;;;;;5019584;28;87976;-49
2021/06/22 13:08:04;;;;;;;;;;;24.50;77.10;;;;;;5022431;28;88144;-51
2021/06/22 13:10:30;;;;;;;;;;;24.50;77.10;;;;;;5021340;28;89814;-52
2021/06/22 13:12:56;;;;;;;;;;;24.50;76.80;;;;;;5018520;28;88009;-52
2021/06/22 13:15:31;;;;;;;;;;;24.50;75.90;;;;;;5019064;28;87281;-49
2021/06/22 13:17:57;;;;;;;;;;;24.60;76.50;;;;;;5019972;28;89482;-50
2021/06/22 13:20:24;;;;;;;;;;;24.60;76.40;;;;;;5021221;28;87206;-50
2021/06/22 13:22:50;;;;;;;;;;;24.60;75.90;;;;;;5021214;28;89065;-50
2021/06/22 13:25:18;;;;;;;;;;;24.60;76.30;;;;;;5019177;28;86415;-51
2021/06/22 13:27:45;;;;;;;;;;;24.60;75.90;;;;;;5020876;28;88150;-51
2021/06/22 13:30:10;;;;;;;;;;;24.60;75.90;;;;;;5021724;28;89390;-52
2021/06/22 13:32:38;;;;;;;;;;;24.60;75.80;;;;;;5021258;28;88167;-53
2021/06/22 13:35:05;;;;;;;;;;;24.60;75.90;;;;;;5020619;28;90391;-52
2021/06/22 13:37:31;;;;;;;;;;;24.60;75.60;;;;;;5019042;28;87964;-51
2021/06/22 13:39:59;;;;;;;;;;;24.60;75.70;;;;;;5020635;28;87137;-50
2021/06/22 13:42:26;;;;;;;;;;;24.70;75.20;;;;;;5017923;28;89047;-50
2021/06/22 13:44:54;;;;;;;;;;;24.70;74.70;;;;;;5020215;28;89675;-49
2021/06/22 13:47:43;;;;;;;;;;;24.80;74.50;;;;;;5021615;28;88467;-52
2021/06/22 13:50:24;;;;;;;;;;;24.80;74.00;;;;;;5018539;28;88307;-49
2021/06/22 13:52:49;;;;;;;;;;;24.80;73.80;;;;;;5020148;28;87169;-51
2021/06/22 13:55:36;;;;;;;;;;;24.80;73.80;;;;;;5021176;28;89203;-51
2021/06/22 13:58:03;;;;;;;;;;;24.90;73.60;;;;;;5019329;28;91072;-49
2021/06/22 14:00:29;;;;;;;;;;;24.90;73.10;;;;;;5019840;28;87177;-51
2021/06/22 14:02:55;;;;;;;;;;;24.90;73.70;;;;;;5020424;28;87919;-50
2021/06/22 14:05:21;;;;;;;;;;;24.90;73.50;;;;;;5023825;28;89479;-51
2021/06/22 14:07:46;;;;;;;;;;;25.00;73.80;;;;;;5021095;28;87155;-51
2021/06/22 14:10:12;;;;;;;;;;;25.00;73.50;;;;;;5020728;28;88168;-51
2021/06/22 14:12:37;;;;;;;;;;;25.00;73.60;;;;;;5018196;28;88820;-50
2021/06/22 14:15:03;;;;;;;;;;;25.10;73.10;;;;;;5018048;28;88766;-50
2021/06/22 14:17:29;;;;;;;;;;;25.10;73.20;;;;;;5018080;28;89651;-50